createdAt,value
2019-02-09T07:15:26.572Z,99.90
2019-02-09T07:20:31.333Z,99.90
2019-02-09T07:25:35.875Z,99.90
2019-02-09T07:30:40.517Z,99.90
2019-02-09T07:35:45.067Z,99.90
2019-02-09T07:40:49.578Z,99.90
2019-02-09T07:45:53.333Z,98.20
2019-02-09T07:51:07.716Z,95.00
2019-02-09T07:56:12.601Z,92.80
2019-02-09T08:01:17.117Z,87.30
2019-02-09T08:06:21.929Z,86.50
2019-02-09T08:11:25.725Z,85.40
2019-02-09T08:16:30.283Z,83.00
2019-02-09T08:21:35.098Z,79.80
2019-02-09T08:26:39.802Z,78.60
2019-02-09T08:31:43.511Z,78.20
2019-02-09T08:36:47.875Z,75.90
2019-02-09T08:41:53.401Z,75.10
2019-02-09T08:46:58.688Z,73.70
2019-02-09T08:52:04.069Z,73.10
2019-02-09T08:57:09.665Z,72.10
2019-02-09T09:02:20.462Z,72.50
2019-02-09T09:07:21.861Z,71.50
2019-02-09T09:12:27.805Z,71.40
2019-02-09T09:17:34.044Z,71.00
2019-02-09T09:22:41.162Z,74.70
2019-02-09T09:27:46.852Z,73.80
2019-02-09T09:32:53.125Z,74.50
2019-02-09T09:37:58.260Z,74.80
2019-02-09T09:43:03.158Z,75.20
2019-02-09T09:48:12.608Z,74.20
2019-02-09T09:53:17.935Z,74.00
2019-02-09T09:58:23.237Z,73.30
2019-02-09T10:03:28.658Z,72.50
2019-02-09T10:08:33.992Z,72.10
2019-02-09T10:13:39.267Z,71.40
2019-02-09T10:18:45.517Z,72.00
2019-02-09T10:23:50.261Z,74.90
2019-02-09T10:28:55.290Z,77.00
2019-02-09T10:34:00.829Z,77.90
2019-02-09T10:39:08.882Z,75.20
2019-02-09T10:44:14.710Z,75.60
2019-02-09T10:49:19.547Z,73.90
2019-02-09T10:54:24.558Z,72.40
2019-02-09T10:59:29.495Z,73.90
2019-02-09T11:04:34.425Z,74.30
2019-02-09T11:09:39.536Z,70.70
2019-02-09T11:14:44.602Z,67.70
2019-02-09T11:19:50.985Z,69.10
2019-02-09T11:24:56.430Z,68.40
2019-02-09T11:30:01.545Z,69.90
2019-02-09T11:35:07.356Z,82.00
2019-02-09T11:40:13.227Z,86.80
2019-02-09T11:45:25.606Z,87.30
2019-02-09T11:50:31.452Z,90.00
2019-02-09T11:55:35.812Z,89.50
2019-02-09T12:00:45.850Z,90.10
2019-02-09T12:05:49.662Z,87.90
2019-02-09T12:10:53.811Z,84.00
2019-02-09T12:15:58.351Z,86.30
2019-02-09T12:21:02.748Z,84.60
2019-02-09T12:26:06.370Z,83.10
2019-02-09T12:31:09.802Z,80.60
2019-02-09T12:36:13.392Z,78.30
2019-02-09T12:41:18.261Z,74.20
2019-02-09T12:46:22.537Z,70.40
2019-02-09T12:51:26.962Z,66.90
2019-02-09T12:56:33.851Z,66.90
2019-02-09T13:01:39.814Z,67.00
2019-02-09T13:06:44.309Z,67.70
2019-02-09T13:11:49.118Z,67.70
2019-02-09T13:16:55.673Z,71.30
2019-02-09T13:22:00.005Z,72.10
2019-02-09T13:27:04.619Z,70.90
2019-02-09T13:32:10.062Z,69.30
2019-02-09T13:37:15.380Z,67.20
2019-02-09T13:42:20.391Z,67.80
2019-02-09T13:47:25.970Z,67.20
2019-02-09T13:52:31.174Z,66.80
2019-02-09T13:57:36.644Z,64.60
2019-02-09T14:02:41.044Z,67.70
2019-02-09T14:07:46.490Z,67.40
2019-02-09T14:12:51.944Z,65.80
2019-02-09T14:17:58.191Z,65.60
2019-02-09T14:23:04.570Z,66.30
2019-02-09T14:28:10.088Z,67.40
2019-02-09T14:33:15.196Z,67.50
2019-02-09T14:38:21.404Z,68.30
2019-02-09T14:43:28.100Z,69.20
2019-02-09T14:48:33.512Z,69.90
2019-02-09T14:53:39.055Z,69.70
2019-02-09T14:58:44.221Z,70.00
2019-02-09T15:03:48.957Z,71.90
2019-02-09T15:08:54.443Z,72.70
2019-02-09T15:14:00.043Z,72.20
2019-02-09T15:19:05.886Z,71.60
